Terminal Aerodrome Forecast
Issued by NWS

Home | Current Version | Previous Version | Text Only | Print | Product List | Glossary On
Versions: 1 2 3 4 5 6 7 8 9 10 11 12 13 14
000
FTUS42 KTBW 282341
TAFLAL
TAF
KLAL 282341Z 2900/2924 VRB03KT P6SM SCT040 BKN080
     FM290300 VRB03KT P6SM SCT080 SCT250
     FM291400 VRB03KT P6SM SCT020 SCT250
     FM291600 VRB04KT P6SM VCTS BKN035CB
     FM292000 30005KT P6SM SCT050 SCT080 BKN250
      AMD NOT SKED 2902/2911=

USA.gov is the U.S. government's official web portal to all federal, state and local government web resources and services.